sensor_id;sensor_type;location;lat;lon;timestamp;P1;durP1;ratioP1;P2;durP2;ratioP2
21543;SDS011;10933;50.754;11.508;2024-02-26T00:01:57;4.30;;;4.00;;
21543;SDS011;10933;50.754;11.508;2024-02-26T00:04:23;3.97;;;3.67;;
21543;SDS011;10933;50.754;11.508;2024-02-26T00:06:50;4.43;;;4.13;;
21543;SDS011;10933;50.754;11.508;2024-02-26T00:09:19;4.43;;;4.13;;
21543;SDS011;10933;50.754;11.508;2024-02-26T00:11:45;4.50;;;4.10;;
21543;SDS011;10933;50.754;11.508;2024-02-26T00:14:11;4.67;;;4.37;;
21543;SDS011;10933;50.754;11.508;2024-02-26T00:16:39;5.10;;;4.70;;
21543;SDS011;10933;50.754;11.508;2024-02-26T00:19:10;4.90;;;4.50;;
21543;SDS011;10933;50.754;11.508;2024-02-26T00:21:39;5.03;;;4.63;;
21543;SDS011;10933;50.754;11.508;2024-02-26T00:24:07;4.80;;;4.40;;
21543;SDS011;10933;50.754;11.508;2024-02-26T00:26:33;4.80;;;4.50;;
21543;SDS011;10933;50.754;11.508;2024-02-26T00:28:59;4.90;;;4.60;;
21543;SDS011;10933;50.754;11.508;2024-02-26T00:31:26;4.90;;;4.60;;
21543;SDS011;10933;50.754;11.508;2024-02-26T00:33:52;5.10;;;4.73;;
21543;SDS011;10933;50.754;11.508;2024-02-26T00:36:18;5.47;;;5.03;;
21543;SDS011;10933;50.754;11.508;2024-02-26T00:38:44;6.40;;;5.90;;
21543;SDS011;10933;50.754;11.508;2024-02-26T00:41:15;7.17;;;6.57;;
21543;SDS011;10933;50.754;11.508;2024-02-26T00:43:42;7.47;;;6.87;;
21543;SDS011;10933;50.754;11.508;2024-02-26T00:46:08;7.07;;;6.57;;
21543;SDS011;10933;50.754;11.508;2024-02-26T00:48:34;6.23;;;5.73;;
21543;SDS011;10933;50.754;11.508;2024-02-26T00:51:02;5.93;;;5.43;;
21543;SDS011;10933;50.754;11.508;2024-02-26T00:53:30;5.70;;;5.30;;
21543;SDS011;10933;50.754;11.508;2024-02-26T00:55:57;5.40;;;4.90;;
21543;SDS011;10933;50.754;11.508;2024-02-26T00:58:26;5.83;;;5.40;;
21543;SDS011;10933;50.754;11.508;2024-02-26T01:00:52;5.17;;;4.77;;
21543;SDS011;10933;50.754;11.508;2024-02-26T01:03:19;5.50;;;5.10;;
21543;SDS011;10933;50.754;11.508;2024-02-26T01:05:45;5.10;;;4.70;;
21543;SDS011;10933;50.754;11.508;2024-02-26T01:08:11;5.33;;;4.93;;
21543;SDS011;10933;50.754;11.508;2024-02-26T01:10:37;5.93;;;5.43;;
21543;SDS011;10933;50.754;11.508;2024-02-26T01:13:03;7.27;;;5.77;;
21543;SDS011;10933;50.754;11.508;2024-02-26T01:15:29;6.40;;;5.70;;
21543;SDS011;10933;50.754;11.508;2024-02-26T01:17:56;6.40;;;5.90;;
21543;SDS011;10933;50.754;11.508;2024-02-26T01:20:22;5.63;;;5.23;;
21543;SDS011;10933;50.754;11.508;2024-02-26T01:22:49;6.00;;;5.40;;
21543;SDS011;10933;50.754;11.508;2024-02-26T01:25:15;5.30;;;4.80;;
21543;SDS011;10933;50.754;11.508;2024-02-26T01:27:41;8.00;;;5.50;;
21543;SDS011;10933;50.754;11.508;2024-02-26T01:30:09;7.20;;;6.50;;
21543;SDS011;10933;50.754;11.508;2024-02-26T01:32:35;21.87;;;17.90;;
21543;SDS011;10933;50.754;11.508;2024-02-26T01:35:02;8.67;;;7.87;;
21543;SDS011;10933;50.754;11.508;2024-02-26T01:37:28;5.50;;;5.10;;
21543;SDS011;10933;50.754;11.508;2024-02-26T01:39:55;6.37;;;5.77;;
21543;SDS011;10933;50.754;11.508;2024-02-26T01:42:21;5.20;;;4.80;;
21543;SDS011;10933;50.754;11.508;2024-02-26T01:44:47;6.00;;;5.30;;
21543;SDS011;10933;50.754;11.508;2024-02-26T01:47:13;5.30;;;4.90;;
21543;SDS011;10933;50.754;11.508;2024-02-26T01:49:39;6.37;;;4.97;;
21543;SDS011;10933;50.754;11.508;2024-02-26T01:52:07;5.23;;;4.73;;
21543;SDS011;10933;50.754;11.508;2024-02-26T01:54:35;5.17;;;4.80;;
21543;SDS011;10933;50.754;11.508;2024-02-26T01:57:03;6.73;;;4.63;;
21543;SDS011;10933;50.754;11.508;2024-02-26T01:59:31;7.10;;;5.63;;
21543;SDS011;10933;50.754;11.508;2024-02-26T02:01:59;5.90;;;5.40;;
21543;SDS011;10933;50.754;11.508;2024-02-26T02:04:28;5.80;;;5.30;;
21543;SDS011;10933;50.754;11.508;2024-02-26T02:06:55;5.23;;;4.93;;
21543;SDS011;10933;50.754;11.508;2024-02-26T02:09:23;5.67;;;5.23;;
21543;SDS011;10933;50.754;11.508;2024-02-26T02:11:49;5.27;;;4.87;;
21543;SDS011;10933;50.754;11.508;2024-02-26T02:14:15;4.97;;;4.57;;
21543;SDS011;10933;50.754;11.508;2024-02-26T02:16:41;5.37;;;4.97;;
21543;SDS011;10933;50.754;11.508;2024-02-26T02:19:07;6.37;;;4.43;;
21543;SDS011;10933;50.754;11.508;2024-02-26T02:21:33;4.80;;;4.47;;
21543;SDS011;10933;50.754;11.508;2024-02-26T02:23:59;5.17;;;4.77;;
21543;SDS011;10933;50.754;11.508;2024-02-26T02:26:26;5.27;;;4.80;;
21543;SDS011;10933;50.754;11.508;2024-02-26T02:28:52;5.17;;;4.87;;
21543;SDS011;10933;50.754;11.508;2024-02-26T02:31:18;5.00;;;4.60;;
21543;SDS011;10933;50.754;11.508;2024-02-26T02:33:44;4.87;;;4.57;;
21543;SDS011;10933;50.754;11.508;2024-02-26T02:36:11;5.37;;;4.57;;
21543;SDS011;10933;50.754;11.508;2024-02-26T02:38:37;5.70;;;5.30;;
21543;SDS011;10933;50.754;11.508;2024-02-26T02:41:13;5.57;;;5.17;;
21543;SDS011;10933;50.754;11.508;2024-02-26T02:43:39;5.03;;;4.73;;
21543;SDS011;10933;50.754;11.508;2024-02-26T02:46:05;5.60;;;5.20;;
21543;SDS011;10933;50.754;11.508;2024-02-26T02:48:31;5.60;;;5.20;;
21543;SDS011;10933;50.754;11.508;2024-02-26T02:50:57;5.17;;;4.80;;
21543;SDS011;10933;50.754;11.508;2024-02-26T02:53:23;4.90;;;4.60;;
21543;SDS011;10933;50.754;11.508;2024-02-26T02:55:49;4.90;;;4.50;;
21543;SDS011;10933;50.754;11.508;2024-02-26T02:58:15;5.23;;;4.93;;
21543;SDS011;10933;50.754;11.508;2024-02-26T03:00:41;5.80;;;5.30;;
21543;SDS011;10933;50.754;11.508;2024-02-26T03:03:07;5.60;;;5.20;;
21543;SDS011;10933;50.754;11.508;2024-02-26T03:05:34;5.90;;;5.40;;
21543;SDS011;10933;50.754;11.508;2024-02-26T03:08:00;5.73;;;5.33;;
21543;SDS011;10933;50.754;11.508;2024-02-26T03:10:26;5.50;;;5.10;;
21543;SDS011;10933;50.754;11.508;2024-02-26T03:12:53;6.07;;;5.67;;
21543;SDS011;10933;50.754;11.508;2024-02-26T03:15:19;6.03;;;5.53;;
21543;SDS011;10933;50.754;11.508;2024-02-26T03:17:45;5.43;;;4.97;;
21543;SDS011;10933;50.754;11.508;2024-02-26T03:20:11;5.50;;;5.10;;
21543;SDS011;10933;50.754;11.508;2024-02-26T03:22:40;7.03;;;6.40;;
21543;SDS011;10933;50.754;11.508;2024-02-26T03:25:07;5.80;;;5.30;;
21543;SDS011;10933;50.754;11.508;2024-02-26T03:27:33;6.37;;;5.87;;
21543;SDS011;10933;50.754;11.508;2024-02-26T03:29:59;5.63;;;5.23;;
21543;SDS011;10933;50.754;11.508;2024-02-26T03:32:25;6.77;;;6.23;;
21543;SDS011;10933;50.754;11.508;2024-02-26T03:34:51;5.63;;;5.07;;
21543;SDS011;10933;50.754;11.508;2024-02-26T03:37:19;5.20;;;4.80;;
21543;SDS011;10933;50.754;11.508;2024-02-26T03:39:46;6.57;;;6.07;;
21543;SDS011;10933;50.754;11.508;2024-02-26T03:42:12;5.33;;;4.93;;
21543;SDS011;10933;50.754;11.508;2024-02-26T03:44:38;5.73;;;5.33;;
21543;SDS011;10933;50.754;11.508;2024-02-26T03:47:04;5.93;;;4.97;;
21543;SDS011;10933;50.754;11.508;2024-02-26T03:49:30;5.47;;;4.97;;
21543;SDS011;10933;50.754;11.508;2024-02-26T03:51:56;5.20;;;4.80;;
21543;SDS011;10933;50.754;11.508;2024-02-26T03:54:22;5.03;;;4.63;;
21543;SDS011;10933;50.754;11.508;2024-02-26T03:56:48;6.00;;;5.60;;
21543;SDS011;10933;50.754;11.508;2024-02-26T03:59:14;6.20;;;5.60;;
21543;SDS011;10933;50.754;11.508;2024-02-26T04:01:44;6.90;;;6.40;;
21543;SDS011;10933;50.754;11.508;2024-02-26T04:04:12;7.03;;;6.50;;
21543;SDS011;10933;50.754;11.508;2024-02-26T04:06:38;6.40;;;5.90;;
21543;SDS011;10933;50.754;11.508;2024-02-26T04:09:04;6.47;;;6.00;;
21543;SDS011;10933;50.754;11.508;2024-02-26T04:11:30;6.57;;;5.97;;
21543;SDS011;10933;50.754;11.508;2024-02-26T04:13:56;6.43;;;5.80;;
21543;SDS011;10933;50.754;11.508;2024-02-26T04:16:22;6.30;;;5.80;;
21543;SDS011;10933;50.754;11.508;2024-02-26T04:18:48;6.43;;;5.93;;
21543;SDS011;10933;50.754;11.508;2024-02-26T04:21:15;5.90;;;5.50;;
21543;SDS011;10933;50.754;11.508;2024-02-26T04:23:41;5.50;;;5.20;;
21543;SDS011;10933;50.754;11.508;2024-02-26T04:26:07;5.63;;;5.23;;
21543;SDS011;10933;50.754;11.508;2024-02-26T04:28:33;5.77;;;5.37;;
21543;SDS011;10933;50.754;11.508;2024-02-26T04:30:59;5.40;;;5.00;;
21543;SDS011;10933;50.754;11.508;2024-02-26T04:33:25;5.50;;;5.10;;
21543;SDS011;10933;50.754;11.508;2024-02-26T04:35:51;5.47;;;5.07;;
21543;SDS011;10933;50.754;11.508;2024-02-26T04:38:19;6.50;;;5.80;;
21543;SDS011;10933;50.754;11.508;2024-02-26T04:40:45;5.67;;;5.17;;
21543;SDS011;10933;50.754;11.508;2024-02-26T04:43:11;6.17;;;4.83;;
21543;SDS011;10933;50.754;11.508;2024-02-26T04:45:38;5.30;;;4.80;;
21543;SDS011;10933;50.754;11.508;2024-02-26T04:48:04;5.23;;;4.83;;
21543;SDS011;10933;50.754;11.508;2024-02-26T04:50:30;5.77;;;5.37;;
21543;SDS011;10933;50.754;11.508;2024-02-26T04:52:56;5.20;;;4.83;;
21543;SDS011;10933;50.754;11.508;2024-02-26T04:55:22;5.40;;;5.00;;
21543;SDS011;10933;50.754;11.508;2024-02-26T04:57:48;5.27;;;4.87;;
21543;SDS011;10933;50.754;11.508;2024-02-26T05:00:15;6.17;;;5.77;;
21543;SDS011;10933;50.754;11.508;2024-02-26T05:02:41;6.37;;;5.87;;
21543;SDS011;10933;50.754;11.508;2024-02-26T05:05:07;6.03;;;5.53;;
21543;SDS011;10933;50.754;11.508;2024-02-26T05:07:33;10.13;;;5.43;;
21543;SDS011;10933;50.754;11.508;2024-02-26T05:10:04;9.07;;;5.70;;
21543;SDS011;10933;50.754;11.508;2024-02-26T05:12:31;6.60;;;5.40;;
21543;SDS011;10933;50.754;11.508;2024-02-26T05:15:00;6.53;;;6.07;;
21543;SDS011;10933;50.754;11.508;2024-02-26T05:17:27;6.43;;;5.93;;
21543;SDS011;10933;50.754;11.508;2024-02-26T05:19:53;7.00;;;6.47;;
21543;SDS011;10933;50.754;11.508;2024-02-26T05:22:19;7.20;;;6.70;;
21543;SDS011;10933;50.754;11.508;2024-02-26T05:24:45;9.53;;;7.10;;
21543;SDS011;10933;50.754;11.508;2024-02-26T05:27:11;7.30;;;6.70;;
21543;SDS011;10933;50.754;11.508;2024-02-26T05:29:37;6.43;;;5.83;;
21543;SDS011;10933;50.754;11.508;2024-02-26T05:32:04;7.67;;;7.17;;
21543;SDS011;10933;50.754;11.508;2024-02-26T05:34:31;7.87;;;7.20;;
21543;SDS011;10933;50.754;11.508;2024-02-26T05:36:58;7.27;;;6.77;;
21543;SDS011;10933;50.754;11.508;2024-02-26T05:39:24;7.50;;;6.50;;
21543;SDS011;10933;50.754;11.508;2024-02-26T05:41:50;6.80;;;6.20;;
21543;SDS011;10933;50.754;11.508;2024-02-26T05:44:16;7.97;;;6.70;;
21543;SDS011;10933;50.754;11.508;2024-02-26T05:46:42;9.93;;;7.33;;
21543;SDS011;10933;50.754;11.508;2024-02-26T05:49:09;8.43;;;7.67;;
21543;SDS011;10933;50.754;11.508;2024-02-26T05:51:35;8.50;;;7.90;;
21543;SDS011;10933;50.754;11.508;2024-02-26T05:54:01;8.13;;;6.83;;
21543;SDS011;10933;50.754;11.508;2024-02-26T05:56:27;7.87;;;7.37;;
21543;SDS011;10933;50.754;11.508;2024-02-26T05:58:53;7.57;;;6.83;;
21543;SDS011;10933;50.754;11.508;2024-02-26T06:01:19;7.47;;;6.97;;
21543;SDS011;10933;50.754;11.508;2024-02-26T06:03:45;9.67;;;8.97;;
21543;SDS011;10933;50.754;11.508;2024-02-26T06:06:11;9.10;;;8.40;;
21543;SDS011;10933;50.754;11.508;2024-02-26T06:08:40;9.70;;;8.90;;
21543;SDS011;10933;50.754;11.508;2024-02-26T06:11:06;9.13;;;8.53;;
21543;SDS011;10933;50.754;11.508;2024-02-26T06:13:33;9.60;;;8.90;;
21543;SDS011;10933;50.754;11.508;2024-02-26T06:15:59;9.27;;;8.30;;
21543;SDS011;10933;50.754;11.508;2024-02-26T06:18:25;8.00;;;7.40;;
21543;SDS011;10933;50.754;11.508;2024-02-26T06:20:51;8.47;;;7.87;;
21543;SDS011;10933;50.754;11.508;2024-02-26T06:23:17;8.00;;;7.27;;
21543;SDS011;10933;50.754;11.508;2024-02-26T06:25:43;8.00;;;7.23;;
21543;SDS011;10933;50.754;11.508;2024-02-26T06:28:10;7.70;;;7.20;;
21543;SDS011;10933;50.754;11.508;2024-02-26T06:30:36;8.03;;;7.47;;
21543;SDS011;10933;50.754;11.508;2024-02-26T06:33:02;9.17;;;8.50;;
21543;SDS011;10933;50.754;11.508;2024-02-26T06:35:28;11.40;;;8.50;;
21543;SDS011;10933;50.754;11.508;2024-02-26T06:37:54;9.33;;;8.40;;
21543;SDS011;10933;50.754;11.508;2024-02-26T06:40:20;9.60;;;8.90;;
21543;SDS011;10933;50.754;11.508;2024-02-26T06:42:47;8.23;;;7.63;;
21543;SDS011;10933;50.754;11.508;2024-02-26T06:45:13;9.27;;;7.93;;
21543;SDS011;10933;50.754;11.508;2024-02-26T06:47:39;8.47;;;7.77;;
21543;SDS011;10933;50.754;11.508;2024-02-26T06:50:05;9.17;;;8.57;;
21543;SDS011;10933;50.754;11.508;2024-02-26T06:52:31;9.33;;;8.53;;
21543;SDS011;10933;50.754;11.508;2024-02-26T06:54:57;9.30;;;8.33;;
21543;SDS011;10933;50.754;11.508;2024-02-26T06:57:23;9.30;;;8.60;;
21543;SDS011;10933;50.754;11.508;2024-02-26T06:59:50;10.60;;;9.80;;
21543;SDS011;10933;50.754;11.508;2024-02-26T07:02:17;10.67;;;9.83;;
21543;SDS011;10933;50.754;11.508;2024-02-26T07:04:43;9.87;;;9.20;;
21543;SDS011;10933;50.754;11.508;2024-02-26T07:07:09;11.50;;;10.57;;
21543;SDS011;10933;50.754;11.508;2024-02-26T07:09:35;13.40;;;12.40;;
21543;SDS011;10933;50.754;11.508;2024-02-26T07:12:01;15.97;;;14.57;;
21543;SDS011;10933;50.754;11.508;2024-02-26T07:14:28;10.63;;;9.87;;
21543;SDS011;10933;50.754;11.508;2024-02-26T07:16:54;7.80;;;7.10;;
21543;SDS011;10933;50.754;11.508;2024-02-26T07:19:20;7.33;;;6.77;;
21543;SDS011;10933;50.754;11.508;2024-02-26T07:21:46;7.47;;;6.87;;
21543;SDS011;10933;50.754;11.508;2024-02-26T07:24:12;9.23;;;7.67;;
21543;SDS011;10933;50.754;11.508;2024-02-26T07:26:39;7.30;;;6.80;;
21543;SDS011;10933;50.754;11.508;2024-02-26T07:29:05;7.57;;;7.07;;
21543;SDS011;10933;50.754;11.508;2024-02-26T07:31:32;10.13;;;9.13;;
21543;SDS011;10933;50.754;11.508;2024-02-26T07:33:58;8.73;;;8.13;;
21543;SDS011;10933;50.754;11.508;2024-02-26T07:36:24;8.80;;;8.10;;
21543;SDS011;10933;50.754;11.508;2024-02-26T07:38:51;8.07;;;7.37;;
21543;SDS011;10933;50.754;11.508;2024-02-26T07:41:19;9.17;;;8.47;;
21543;SDS011;10933;50.754;11.508;2024-02-26T07:43:45;8.53;;;7.80;;
21543;SDS011;10933;50.754;11.508;2024-02-26T07:46:12;10.37;;;9.67;;
21543;SDS011;10933;50.754;11.508;2024-02-26T07:48:38;11.37;;;10.47;;
21543;SDS011;10933;50.754;11.508;2024-02-26T07:51:04;9.47;;;8.70;;
21543;SDS011;10933;50.754;11.508;2024-02-26T07:53:30;9.50;;;8.60;;
21543;SDS011;10933;50.754;11.508;2024-02-26T07:55:56;9.83;;;9.13;;
21543;SDS011;10933;50.754;11.508;2024-02-26T07:58:23;13.13;;;11.73;;
21543;SDS011;10933;50.754;11.508;2024-02-26T08:00:49;11.80;;;10.90;;
21543;SDS011;10933;50.754;11.508;2024-02-26T08:03:15;9.83;;;9.10;;
21543;SDS011;10933;50.754;11.508;2024-02-26T08:05:41;9.67;;;8.97;;
21543;SDS011;10933;50.754;11.508;2024-02-26T08:08:08;15.03;;;13.37;;
21543;SDS011;10933;50.754;11.508;2024-02-26T08:10:34;13.23;;;12.03;;
21543;SDS011;10933;50.754;11.508;2024-02-26T08:13:00;11.07;;;10.10;;
21543;SDS011;10933;50.754;11.508;2024-02-26T08:15:32;21.47;;;18.97;;
21543;SDS011;10933;50.754;11.508;2024-02-26T08:18:00;9.80;;;9.00;;
21543;SDS011;10933;50.754;11.508;2024-02-26T08:20:29;10.03;;;9.33;;
21543;SDS011;10933;50.754;11.508;2024-02-26T08:22:56;8.33;;;7.73;;
21543;SDS011;10933;50.754;11.508;2024-02-26T08:25:23;9.27;;;8.67;;
21543;SDS011;10933;50.754;11.508;2024-02-26T08:27:49;9.23;;;8.57;;
21543;SDS011;10933;50.754;11.508;2024-02-26T08:30:15;19.87;;;9.53;;
21543;SDS011;10933;50.754;11.508;2024-02-26T08:32:45;13.30;;;11.97;;
21543;SDS011;10933;50.754;11.508;2024-02-26T08:35:12;12.07;;;8.73;;
21543;SDS011;10933;50.754;11.508;2024-02-26T08:37:39;10.47;;;9.23;;
21543;SDS011;10933;50.754;11.508;2024-02-26T08:40:06;8.77;;;8.07;;
21543;SDS011;10933;50.754;11.508;2024-02-26T08:42:32;9.37;;;8.67;;
21543;SDS011;10933;50.754;11.508;2024-02-26T08:44:58;10.00;;;8.67;;
21543;SDS011;10933;50.754;11.508;2024-02-26T08:47:26;9.20;;;8.50;;
21543;SDS011;10933;50.754;11.508;2024-02-26T08:49:53;9.57;;;8.87;;
21543;SDS011;10933;50.754;11.508;2024-02-26T08:52:19;8.60;;;8.00;;
21543;SDS011;10933;50.754;11.508;2024-02-26T08:54:46;8.40;;;7.80;;
21543;SDS011;10933;50.754;11.508;2024-02-26T08:57:13;8.07;;;7.50;;
21543;SDS011;10933;50.754;11.508;2024-02-26T08:59:39;7.70;;;7.13;;
21543;SDS011;10933;50.754;11.508;2024-02-26T09:02:05;8.70;;;8.00;;
21543;SDS011;10933;50.754;11.508;2024-02-26T09:04:33;9.43;;;8.73;;
21543;SDS011;10933;50.754;11.508;2024-02-26T09:07:00;8.57;;;7.97;;
21543;SDS011;10933;50.754;11.508;2024-02-26T09:09:27;8.60;;;7.97;;
21543;SDS011;10933;50.754;11.508;2024-02-26T09:11:53;7.67;;;7.10;;
21543;SDS011;10933;50.754;11.508;2024-02-26T09:14:20;8.57;;;7.97;;
21543;SDS011;10933;50.754;11.508;2024-02-26T09:16:46;8.50;;;7.70;;
21543;SDS011;10933;50.754;11.508;2024-02-26T09:19:13;9.97;;;9.17;;
21543;SDS011;10933;50.754;11.508;2024-02-26T09:21:43;9.03;;;8.23;;
21543;SDS011;10933;50.754;11.508;2024-02-26T09:24:10;9.33;;;8.63;;
21543;SDS011;10933;50.754;11.508;2024-02-26T09:26:37;9.13;;;8.53;;
21543;SDS011;10933;50.754;11.508;2024-02-26T09:29:03;11.40;;;10.57;;
21543;SDS011;10933;50.754;11.508;2024-02-26T09:31:30;15.57;;;14.33;;
21543;SDS011;10933;50.754;11.508;2024-02-26T09:33:56;14.10;;;12.70;;
21543;SDS011;10933;50.754;11.508;2024-02-26T09:36:22;13.07;;;11.87;;
21543;SDS011;10933;50.754;11.508;2024-02-26T09:38:48;13.47;;;12.53;;
21543;SDS011;10933;50.754;11.508;2024-02-26T09:41:15;13.50;;;12.27;;
21543;SDS011;10933;50.754;11.508;2024-02-26T09:43:42;11.90;;;10.90;;
21543;SDS011;10933;50.754;11.508;2024-02-26T09:46:12;11.07;;;10.27;;
21543;SDS011;10933;50.754;11.508;2024-02-26T09:48:40;11.53;;;10.73;;
21543;SDS011;10933;50.754;11.508;2024-02-26T09:51:10;10.30;;;9.60;;
21543;SDS011;10933;50.754;11.508;2024-02-26T09:53:37;11.87;;;11.10;;
21543;SDS011;10933;50.754;11.508;2024-02-26T09:56:07;16.13;;;12.47;;
21543;SDS011;10933;50.754;11.508;2024-02-26T09:58:34;12.90;;;12.03;;
21543;SDS011;10933;50.754;11.508;2024-02-26T10:01:02;12.53;;;11.63;;
21543;SDS011;10933;50.754;11.508;2024-02-26T10:03:34;13.03;;;12.13;;
21543;SDS011;10933;50.754;11.508;2024-02-26T10:06:03;13.03;;;11.63;;
21543;SDS011;10933;50.754;11.508;2024-02-26T10:08:31;13.63;;;12.50;;
21543;SDS011;10933;50.754;11.508;2024-02-26T10:10:57;16.10;;;12.40;;
21543;SDS011;10933;50.754;11.508;2024-02-26T10:13:23;12.60;;;11.70;;
21543;SDS011;10933;50.754;11.508;2024-02-26T10:15:50;11.73;;;10.93;;
21543;SDS011;10933;50.754;11.508;2024-02-26T10:18:16;12.30;;;11.50;;
21543;SDS011;10933;50.754;11.508;2024-02-26T10:20:42;13.13;;;12.17;;
21543;SDS011;10933;50.754;11.508;2024-02-26T10:23:27;11.57;;;10.67;;
21543;SDS011;10933;50.754;11.508;2024-02-26T10:25:53;12.13;;;11.33;;
21543;SDS011;10933;50.754;11.508;2024-02-26T10:28:21;12.23;;;11.23;;
21543;SDS011;10933;50.754;11.508;2024-02-26T10:30:47;12.30;;;11.50;;
21543;SDS011;10933;50.754;11.508;2024-02-26T10:33:14;11.70;;;10.80;;
21543;SDS011;10933;50.754;11.508;2024-02-26T10:35:45;11.80;;;11.00;;
21543;SDS011;10933;50.754;11.508;2024-02-26T10:38:11;12.10;;;11.30;;
21543;SDS011;10933;50.754;11.508;2024-02-26T10:40:38;12.47;;;11.27;;
21543;SDS011;10933;50.754;11.508;2024-02-26T10:43:04;12.70;;;11.80;;
21543;SDS011;10933;50.754;11.508;2024-02-26T10:45:31;13.30;;;12.10;;
21543;SDS011;10933;50.754;11.508;2024-02-26T10:47:57;14.33;;;12.93;;
21543;SDS011;10933;50.754;11.508;2024-02-26T10:50:25;13.37;;;12.53;;
21543;SDS011;10933;50.754;11.508;2024-02-26T10:52:51;13.57;;;12.67;;
21543;SDS011;10933;50.754;11.508;2024-02-26T10:55:20;13.60;;;12.60;;
21543;SDS011;10933;50.754;11.508;2024-02-26T10:57:47;13.40;;;12.40;;
21543;SDS011;10933;50.754;11.508;2024-02-26T11:00:17;12.97;;;12.13;;
21543;SDS011;10933;50.754;11.508;2024-02-26T11:02:44;14.20;;;13.20;;
21543;SDS011;10933;50.754;11.508;2024-02-26T11:05:13;13.87;;;12.97;;
21543;SDS011;10933;50.754;11.508;2024-02-26T11:07:41;12.67;;;11.73;;
21543;SDS011;10933;50.754;11.508;2024-02-26T11:10:07;13.40;;;12.53;;
21543;SDS011;10933;50.754;11.508;2024-02-26T11:12:36;13.90;;;12.57;;
21543;SDS011;10933;50.754;11.508;2024-02-26T11:15:04;13.13;;;12.23;;
21543;SDS011;10933;50.754;11.508;2024-02-26T11:17:30;12.80;;;11.87;;
21543;SDS011;10933;50.754;11.508;2024-02-26T11:20:00;13.10;;;12.23;;
21543;SDS011;10933;50.754;11.508;2024-02-26T11:22:27;13.63;;;12.73;;
21543;SDS011;10933;50.754;11.508;2024-02-26T11:24:54;12.43;;;11.57;;
21543;SDS011;10933;50.754;11.508;2024-02-26T11:27:26;12.47;;;11.67;;
21543;SDS011;10933;50.754;11.508;2024-02-26T11:29:55;13.03;;;12.13;;
21543;SDS011;10933;50.754;11.508;2024-02-26T11:32:25;14.27;;;13.27;;
21543;SDS011;10933;50.754;11.508;2024-02-26T11:34:55;14.10;;;12.83;;
21543;SDS011;10933;50.754;11.508;2024-02-26T11:37:21;13.07;;;11.80;;
21543;SDS011;10933;50.754;11.508;2024-02-26T11:39:48;13.00;;;12.00;;
21543;SDS011;10933;50.754;11.508;2024-02-26T11:42:17;11.90;;;11.10;;
21543;SDS011;10933;50.754;11.508;2024-02-26T11:44:50;11.80;;;11.07;;
21543;SDS011;10933;50.754;11.508;2024-02-26T11:47:20;12.37;;;11.40;;
21543;SDS011;10933;50.754;11.508;2024-02-26T11:49:47;12.80;;;11.93;;
21543;SDS011;10933;50.754;11.508;2024-02-26T11:52:14;12.47;;;11.67;;
21543;SDS011;10933;50.754;11.508;2024-02-26T11:54:50;13.03;;;12.23;;
21543;SDS011;10933;50.754;11.508;2024-02-26T11:57:27;12.73;;;11.73;;
21543;SDS011;10933;50.754;11.508;2024-02-26T11:59:55;12.37;;;11.57;;
21543;SDS011;10933;50.754;11.508;2024-02-26T12:05:32;12.83;;;12.03;;
21543;SDS011;10933;50.754;11.508;2024-02-26T12:08:02;13.60;;;12.50;;
21543;SDS011;10933;50.754;11.508;2024-02-26T12:10:32;13.23;;;12.33;;
21543;SDS011;10933;50.754;11.508;2024-02-26T12:13:05;12.00;;;11.20;;
21543;SDS011;10933;50.754;11.508;2024-02-26T12:15:33;12.27;;;11.37;;
21543;SDS011;10933;50.754;11.508;2024-02-26T12:18:03;13.13;;;12.33;;
21543;SDS011;10933;50.754;11.508;2024-02-26T12:20:31;12.67;;;11.87;;
21543;SDS011;10933;50.754;11.508;2024-02-26T12:22:57;13.10;;;12.20;;
21543;SDS011;10933;50.754;11.508;2024-02-26T12:25:24;13.53;;;12.67;;
21543;SDS011;10933;50.754;11.508;2024-02-26T12:27:53;13.40;;;12.50;;
21543;SDS011;10933;50.754;11.508;2024-02-26T12:30:20;13.33;;;12.53;;
21543;SDS011;10933;50.754;11.508;2024-02-26T12:32:49;14.53;;;13.43;;
21543;SDS011;10933;50.754;11.508;2024-02-26T12:35:17;14.03;;;13.03;;
21543;SDS011;10933;50.754;11.508;2024-02-26T12:37:43;14.53;;;13.43;;
21543;SDS011;10933;50.754;11.508;2024-02-26T12:40:10;13.30;;;12.37;;
21543;SDS011;10933;50.754;11.508;2024-02-26T12:42:37;14.43;;;13.47;;
21543;SDS011;10933;50.754;11.508;2024-02-26T12:45:08;14.80;;;13.90;;
21543;SDS011;10933;50.754;11.508;2024-02-26T12:47:39;15.07;;;14.07;;
21543;SDS011;10933;50.754;11.508;2024-02-26T12:50:06;15.87;;;14.50;;
21543;SDS011;10933;50.754;11.508;2024-02-26T12:52:34;14.60;;;13.60;;
21543;SDS011;10933;50.754;11.508;2024-02-26T12:55:04;15.17;;;13.87;;
21543;SDS011;10933;50.754;11.508;2024-02-26T12:57:37;15.57;;;14.57;;
21543;SDS011;10933;50.754;11.508;2024-02-26T13:00:05;15.65;;;14.55;;
21543;SDS011;10933;50.754;11.508;2024-02-26T13:02:36;15.53;;;14.07;;
21543;SDS011;10933;50.754;11.508;2024-02-26T13:05:03;15.82;;;14.55;;
21543;SDS011;10933;50.754;11.508;2024-02-26T13:07:31;16.17;;;14.98;;
21543;SDS011;10933;50.754;11.508;2024-02-26T13:09:58;15.27;;;14.27;;
21543;SDS011;10933;50.754;11.508;2024-02-26T13:12:25;15.50;;;14.07;;
21543;SDS011;10933;50.754;11.508;2024-02-26T13:15:03;15.50;;;14.50;;
21543;SDS011;10933;50.754;11.508;2024-02-26T13:17:33;14.65;;;13.57;;
21543;SDS011;10933;50.754;11.508;2024-02-26T13:19:59;16.55;;;15.32;;
21543;SDS011;10933;50.754;11.508;2024-02-26T13:22:25;16.30;;;15.17;;
21543;SDS011;10933;50.754;11.508;2024-02-26T13:24:55;15.82;;;14.73;;
21543;SDS011;10933;50.754;11.508;2024-02-26T13:27:24;16.17;;;14.85;;
21543;SDS011;10933;50.754;11.508;2024-02-26T13:30:12;16.48;;;15.25;;
21543;SDS011;10933;50.754;11.508;2024-02-26T13:32:38;16.48;;;15.27;;
21543;SDS011;10933;50.754;11.508;2024-02-26T13:35:09;15.75;;;14.48;;
21543;SDS011;10933;50.754;11.508;2024-02-26T13:37:36;15.57;;;14.47;;
21543;SDS011;10933;50.754;11.508;2024-02-26T13:40:06;15.70;;;14.70;;
21543;SDS011;10933;50.754;11.508;2024-02-26T13:42:35;15.43;;;14.43;;
21543;SDS011;10933;50.754;11.508;2024-02-26T13:45:04;15.70;;;14.53;;
21543;SDS011;10933;50.754;11.508;2024-02-26T13:47:35;15.43;;;14.37;;
21543;SDS011;10933;50.754;11.508;2024-02-26T13:50:01;15.17;;;13.53;;
21543;SDS011;10933;50.754;11.508;2024-02-26T13:52:28;14.30;;;13.40;;
21543;SDS011;10933;50.754;11.508;2024-02-26T13:54:57;14.97;;;13.93;;
21543;SDS011;10933;50.754;11.508;2024-02-26T13:57:24;15.23;;;14.03;;
21543;SDS011;10933;50.754;11.508;2024-02-26T13:59:50;13.77;;;12.67;;
21543;SDS011;10933;50.754;11.508;2024-02-26T14:02:17;14.17;;;13.03;;
21543;SDS011;10933;50.754;11.508;2024-02-26T14:04:43;14.97;;;13.87;;
21543;SDS011;10933;50.754;11.508;2024-02-26T14:07:09;14.17;;;13.17;;
21543;SDS011;10933;50.754;11.508;2024-02-26T14:09:37;13.83;;;12.93;;
21543;SDS011;10933;50.754;11.508;2024-02-26T14:12:03;14.10;;;13.03;;
21543;SDS011;10933;50.754;11.508;2024-02-26T14:14:30;13.93;;;12.87;;
21543;SDS011;10933;50.754;11.508;2024-02-26T14:17:00;15.80;;;14.60;;
21543;SDS011;10933;50.754;11.508;2024-02-26T14:19:27;15.37;;;13.90;;
21543;SDS011;10933;50.754;11.508;2024-02-26T14:21:53;15.77;;;14.63;;
21543;SDS011;10933;50.754;11.508;2024-02-26T14:24:20;16.30;;;15.03;;
21543;SDS011;10933;50.754;11.508;2024-02-26T14:26:46;15.68;;;14.18;;